Time;durP1;ratioP1;P1;durP2;ratioP2;P2;SDS_P1;SDS_P2;PMS_P1;PMS_P2;Temp;Humidity;BMP_temperature;BMP_pressure;BME280_temperature;BME280_humidity;BME280_pressure;Samples;Min_cycle;Max_cycle;Signal;HPM_P1;HPM_P2
2021/05/10 00:01:40;;;;;;;1.90;1.80;;;19.20;99.90;;;;;;5016025;28;20173;-89
2021/05/10 00:04:06;;;;;;;1.90;1.80;;;19.20;99.90;;;;;;5015349;28;21002;-89
2021/05/10 00:06:32;;;;;;;3.07;2.40;;;19.20;99.90;;;;;;5016509;28;20251;-89
2021/05/10 00:08:58;;;;;;;2.17;2.07;;;19.20;99.90;;;;;;5015315;28;20185;-89
2021/05/10 00:11:24;;;;;;;1.90;1.80;;;19.10;99.90;;;;;;5016254;28;20166;-90
2021/05/10 00:13:50;;;;;;;2.50;2.30;;;19.20;99.90;;;;;;5015415;28;20687;-89
2021/05/10 00:16:16;;;;;;;2.23;2.13;;;19.30;99.90;;;;;;5015474;28;20420;-89
2021/05/10 00:18:47;;;;;;;2.83;1.80;;;19.40;99.90;;;;;;5016043;28;20500;-88
2021/05/10 00:21:13;;;;;;;2.20;2.07;;;19.40;99.90;;;;;;5016001;28;20265;-89
2021/05/10 00:23:39;;;;;;;2.50;2.30;;;19.50;99.90;;;;;;5014802;28;20990;-89
2021/05/10 00:26:05;;;;;;;2.37;2.20;;;19.50;99.90;;;;;;5015174;28;20228;-89
2021/05/10 00:28:30;;;;;;;2.70;1.90;;;19.50;99.90;;;;;;5014668;28;20792;-89
2021/05/10 00:30:56;;;;;;;1.67;1.57;;;19.50;99.90;;;;;;5014621;28;20299;-89
2021/05/10 00:33:22;;;;;;;4.20;2.40;;;19.50;99.90;;;;;;5015617;28;20202;-89
2021/05/10 00:35:48;;;;;;;2.20;2.10;;;19.50;99.90;;;;;;5014941;28;20420;-90
2021/05/10 00:38:13;;;;;;;2.27;2.07;;;19.40;99.90;;;;;;5014844;28;20177;-89
2021/05/10 00:40:39;;;;;;;2.43;2.23;;;19.30;99.90;;;;;;5014658;28;20687;-89
2021/05/10 00:43:05;;;;;;;2.17;2.07;;;19.20;99.90;;;;;;5014736;28;20247;-89
2021/05/10 00:45:31;;;;;;;2.90;2.23;;;19.10;99.90;;;;;;5015127;28;20446;-90
2021/05/10 00:47:57;;;;;;;2.57;2.37;;;19.00;99.90;;;;;;5015023;28;20427;-89
2021/05/10 00:50:23;;;;;;;2.10;1.90;;;19.00;99.90;;;;;;5014606;28;20651;-89
2021/05/10 00:52:49;;;;;;;2.03;1.90;;;18.90;99.90;;;;;;5015454;28;20428;-89
2021/05/10 00:55:16;;;;;;;2.60;2.40;;;18.80;99.90;;;;;;5015823;28;20424;-89
2021/05/10 00:57:50;;;;;;;2.80;1.97;;;18.80;99.90;;;;;;5014663;28;21009;-89
2021/05/10 01:00:16;;;;;;;2.13;2.03;;;18.70;99.90;;;;;;5015724;28;20444;-89
2021/05/10 01:02:43;;;;;;;5.70;2.40;;;18.60;99.90;;;;;;5017992;28;20459;-89
2021/05/10 01:05:09;;;;;;;2.10;2.00;;;18.60;99.90;;;;;;5018072;28;20431;-90
2021/05/10 01:07:35;;;;;;;3.13;2.40;;;18.50;99.90;;;;;;5016484;28;20417;-89
2021/05/10 01:10:14;;;;;;;2.33;2.13;;;18.40;99.90;;;;;;5017282;28;20446;-89
2021/05/10 01:12:41;;;;;;;2.30;2.13;;;18.40;99.90;;;;;;5017312;28;20173;-89
2021/05/10 01:15:10;;;;;;;3.40;2.57;;;18.40;99.90;;;;;;5017107;28;20442;-90
2021/05/10 01:17:36;;;;;;;2.90;2.30;;;18.30;99.90;;;;;;5018633;28;20427;-89
2021/05/10 01:20:09;;;;;;;2.43;2.33;;;18.20;99.90;;;;;;5019923;28;20416;-89
2021/05/10 01:22:42;;;;;;;2.60;2.40;;;18.10;99.90;;;;;;5019377;28;20417;-89
2021/05/10 01:25:17;;;;;;;2.43;2.30;;;17.90;99.90;;;;;;5018307;28;20515;-90
2021/05/10 01:27:43;;;;;;;2.93;2.50;;;17.70;1.00;;;;;;5016370;28;20431;-89
2021/05/10 01:30:21;;;;;;;2.70;2.50;;;17.60;1.00;;;;;;5015032;28;20431;-89
2021/05/10 01:32:48;;;;;;;3.93;3.60;;;17.40;1.00;;;;;;5014797;28;20447;-90
2021/05/10 01:35:16;;;;;;;3.60;2.93;;;17.20;1.00;;;;;;5015213;28;20421;-89
2021/05/10 01:37:41;;;;;;;3.77;2.70;;;17.10;1.00;;;;;;5014273;28;20424;-90
2021/05/10 01:40:08;;;;;;;2.90;2.60;;;17.00;1.00;;;;;;5013970;28;20420;-89
2021/05/10 01:42:34;;;;;;;5.17;2.90;;;16.90;1.00;;;;;;5015170;28;20227;-89
2021/05/10 01:45:00;;;;;;;2.83;2.63;;;16.90;1.00;;;;;;5014828;28;20460;-89
2021/05/10 01:47:26;;;;;;;4.90;3.07;;;16.80;1.00;;;;;;5016481;28;20427;-89
2021/05/10 01:49:51;;;;;;;3.93;3.60;;;16.70;1.00;;;;;;5018602;28;20224;-89
2021/05/10 01:52:17;;;;;;;3.07;2.87;;;16.60;3.60;;;;;;5017472;28;20208;-89
2021/05/10 01:54:52;;;;;;;2.80;2.57;;;16.60;15.70;;;;;;5017770;28;20216;-90
2021/05/10 01:57:19;;;;;;;2.67;2.47;;;16.50;1.50;;;;;;5018195;28;20462;-89
2021/05/10 01:59:45;;;;;;;2.53;2.33;;;16.50;1.00;;;;;;5019156;28;20416;-89
2021/05/10 02:02:11;;;;;;;2.70;2.50;;;16.50;1.00;;;;;;5018154;28;20471;-90
2021/05/10 02:05:06;;;;;;;2.90;2.70;;;16.50;1.00;;;;;;5019144;28;20495;-89
2021/05/10 02:07:32;;;;;;;2.97;2.77;;;16.50;1.00;;;;;;5017488;28;20613;-89
2021/05/10 02:09:58;;;;;;;2.67;2.47;;;16.40;1.00;;;;;;5017463;28;20764;-89
2021/05/10 02:12:24;;;;;;;2.50;2.30;;;16.50;1.00;;;;;;5018405;28;20425;-89
2021/05/10 02:14:49;;;;;;;2.50;2.30;;;16.50;1.00;;;;;;5031468;28;20185;-89
2021/05/10 02:17:15;;;;;;;2.60;2.20;;;16.50;1.00;;;;;;5033907;28;20215;-89
2021/05/10 02:19:40;;;;;;;2.67;2.47;;;16.50;1.00;;;;;;5023002;28;20196;-90
2021/05/10 02:22:06;;;;;;;3.13;2.83;;;16.50;1.00;;;;;;5022869;28;20188;-89
2021/05/10 02:24:36;;;;;;;3.30;2.60;;;16.50;1.00;;;;;;5020227;28;20212;-89
2021/05/10 02:27:05;;;;;;;3.50;1.90;;;16.40;26.50;;;;;;5018171;28;20177;-89
2021/05/10 02:29:31;;;;;;;2.67;2.50;;;16.20;85.40;;;;;;5017031;28;20882;-89
2021/05/10 02:31:57;;;;;;;2.57;2.37;;;16.20;99.90;;;;;;5016770;28;20419;-89
2021/05/10 02:34:23;;;;;;;2.80;2.60;;;16.20;95.90;;;;;;5018251;28;20428;-88
2021/05/10 02:36:51;;;;;;;2.97;2.60;;;16.30;51.60;;;;;;5017757;28;20173;-89
2021/05/10 02:42:39;;;;;;;2.13;1.90;;;16.40;1.00;;;;;;5017293;28;20396;-90
2021/05/10 02:45:06;;;;;;;3.17;2.93;;;16.70;1.00;;;;;;5016769;28;20435;-89
2021/05/10 02:47:32;;;;;;;2.70;2.60;;;16.80;1.00;;;;;;5016230;28;20924;-89
2021/05/10 02:49:58;;;;;;;2.40;2.23;;;16.80;1.00;;;;;;5016577;28;20438;-89
2021/05/10 02:52:23;;;;;;;2.70;2.50;;;16.70;1.00;;;;;;5017534;28;20424;-88
2021/05/10 02:54:49;;;;;;;2.60;1.87;;;16.80;1.00;;;;;;5016689;28;20184;-90
2021/05/10 02:57:15;;;;;;;3.67;2.77;;;16.70;1.00;;;;;;5016879;28;20271;-89
2021/05/10 02:59:42;;;;;;;3.17;2.50;;;16.70;1.00;;;;;;5017108;28;20169;-89
2021/05/10 03:02:09;;;;;;;2.77;2.13;;;16.70;1.00;;;;;;5016119;28;20470;-88
2021/05/10 03:04:34;;;;;;;3.37;2.40;;;16.70;1.00;;;;;;5017849;28;20471;-89
2021/05/10 03:07:00;;;;;;;2.77;2.57;;;16.70;1.00;;;;;;5016787;28;20826;-90
2021/05/10 03:09:26;;;;;;;2.20;2.00;;;16.90;1.00;;;;;;5016289;28;20205;-89
2021/05/10 03:11:51;;;;;;;1.90;1.80;;;17.10;99.90;;;;;;5016282;28;20178;-89
2021/05/10 03:14:17;;;;;;;2.10;2.00;;;17.20;99.90;;;;;;5016676;28;20186;-89
2021/05/10 03:16:43;;;;;;;2.93;2.63;;;17.30;99.90;;;;;;5015626;28;20641;-89
2021/05/10 03:19:11;;;;;;;2.30;2.20;;;17.40;99.90;;;;;;5015756;28;20177;-88
2021/05/10 03:21:40;;;;;;;2.40;2.17;;;17.50;99.90;;;;;;5017411;28;20177;-89
2021/05/10 03:24:09;;;;;;;2.83;2.57;;;17.50;99.90;;;;;;5016209;28;20502;-89
2021/05/10 03:26:36;;;;;;;2.73;2.20;;;17.50;99.90;;;;;;5016703;28;20858;-89
2021/05/10 03:29:03;;;;;;;1.90;1.70;;;17.50;99.90;;;;;;5015165;28;20416;-87
2021/05/10 03:31:30;;;;;;;2.23;2.13;;;17.50;99.90;;;;;;5017588;28;20438;-88
2021/05/10 03:33:56;;;;;;;1.63;1.53;;;17.70;99.90;;;;;;5015448;28;20424;-88
2021/05/10 03:36:21;;;;;;;3.30;2.13;;;17.70;99.90;;;;;;5017536;28;20451;-90
2021/05/10 03:38:47;;;;;;;1.90;1.80;;;17.80;99.90;;;;;;5016581;28;20533;-90
2021/05/10 03:41:13;;;;;;;5.77;2.20;;;17.90;99.90;;;;;;5016751;28;20178;-89
2021/05/10 03:43:39;;;;;;;3.57;1.90;;;18.10;99.90;;;;;;5017387;28;20363;-89
2021/05/10 03:46:04;;;;;;;2.20;1.97;;;18.20;99.90;;;;;;5016579;28;20181;-90
2021/05/10 03:48:30;;;;;;;2.20;2.10;;;18.20;99.90;;;;;;5015800;28;20188;-90
2021/05/10 03:50:55;;;;;;;2.20;2.00;;;18.20;99.90;;;;;;5017556;28;20527;-85
2021/05/10 03:53:21;;;;;;;2.13;2.03;;;18.20;99.90;;;;;;5015882;28;20178;-89
2021/05/10 03:55:47;;;;;;;2.10;2.00;;;18.20;99.90;;;;;;5015817;28;20235;-89
2021/05/10 03:58:13;;;;;;;14.63;11.40;;;18.30;99.90;;;;;;5017204;28;20170;-89
2021/05/10 04:00:39;;;;;;;2.30;2.10;;;18.40;99.90;;;;;;5015529;28;20421;-87
2021/05/10 04:03:07;;;;;;;3.33;2.37;;;18.40;99.90;;;;;;5015642;28;20224;-89
2021/05/10 04:13:37;;;;;;;2.37;1.90;;;18.30;99.90;;;;;;5016454;28;20904;-87
2021/05/10 04:16:06;;;;;;;2.30;2.10;;;18.30;99.90;;;;;;5017314;28;20400;-90
2021/05/10 04:18:32;;;;;;;3.37;2.73;;;18.30;99.90;;;;;;5016134;28;20429;-88
2021/05/10 04:20:58;;;;;;;2.83;2.10;;;18.30;99.90;;;;;;5015880;28;20475;-75
2021/05/10 04:23:24;;;;;;;2.83;2.63;;;18.40;99.90;;;;;;5015624;28;20209;-86
2021/05/10 04:25:51;;;;;;;2.63;2.37;;;18.50;99.90;;;;;;5015800;28;20188;-87
2021/05/10 04:28:18;;;;;;;2.20;2.10;;;18.40;99.90;;;;;;5015630;28;20459;-86
2021/05/10 04:30:45;;;;;;;2.90;1.90;;;18.40;99.90;;;;;;5015058;28;20419;-87
2021/05/10 04:33:11;;;;;;;2.90;2.67;;;18.40;99.90;;;;;;5015530;28;20460;-89
2021/05/10 04:35:37;;;;;;;4.40;2.30;;;18.30;99.90;;;;;;5015176;28;20413;-89
2021/05/10 04:38:09;;;;;;;2.67;2.47;;;18.30;99.90;;;;;;5016521;28;20416;-88
2021/05/10 04:40:36;;;;;;;2.43;1.93;;;18.30;99.90;;;;;;5015608;28;20188;-86
2021/05/10 04:43:01;;;;;;;2.97;2.00;;;18.20;99.90;;;;;;5014409;28;20864;-87
2021/05/10 04:45:27;;;;;;;4.83;2.20;;;18.20;99.90;;;;;;5015593;28;20436;-90
2021/05/10 04:47:53;;;;;;;3.57;1.93;;;18.10;99.90;;;;;;5015326;28;20204;-89
2021/05/10 04:50:18;;;;;;;8.37;3.40;;;18.20;99.90;;;;;;5016150;28;20213;-88
2021/05/10 04:52:44;;;;;;;2.40;2.20;;;18.20;99.90;;;;;;5017414;28;20176;-88
2021/05/10 04:55:11;;;;;;;3.50;2.80;;;18.30;99.90;;;;;;5017379;28;20188;-90
2021/05/10 04:57:37;;;;;;;2.07;1.97;;;18.30;99.90;;;;;;5013626;28;20256;-83
2021/05/10 05:00:08;;;;;;;2.83;2.20;;;18.40;99.90;;;;;;5020304;28;20443;-87
2021/05/10 05:02:34;;;;;;;2.00;1.90;;;18.50;99.90;;;;;;5017564;28;20904;-88
2021/05/10 05:05:00;;;;;;;2.20;2.07;;;18.50;99.90;;;;;;5016161;28;20432;-89
2021/05/10 05:07:26;;;;;;;2.83;2.17;;;18.50;99.90;;;;;;5015438;28;20173;-89
2021/05/10 05:09:51;;;;;;;6.83;2.10;;;18.50;99.90;;;;;;5019872;28;20520;-88
2021/05/10 05:12:17;;;;;;;4.73;2.50;;;18.50;99.90;;;;;;5017014;28;20174;-90
2021/05/10 05:14:43;;;;;;;2.80;2.10;;;18.50;99.90;;;;;;5018170;28;20184;-81
2021/05/10 05:17:09;;;;;;;7.90;2.47;;;18.40;99.90;;;;;;5029676;28;20177;-89
2021/05/10 05:19:35;;;;;;;2.13;2.03;;;18.40;99.90;;;;;;5019710;28;20181;-84
2021/05/10 05:22:01;;;;;;;5.83;2.97;;;18.30;99.90;;;;;;5015995;28;20420;-85
2021/05/10 05:24:26;;;;;;;9.40;2.63;;;18.30;99.90;;;;;;5017593;28;20221;-89
2021/05/10 05:26:52;;;;;;;2.67;2.10;;;18.40;99.90;;;;;;5018294;28;20169;-86
2021/05/10 05:29:21;;;;;;;6.07;2.90;;;18.60;99.90;;;;;;5019191;28;20173;-84
2021/05/10 05:31:47;;;;;;;7.27;2.27;;;18.80;99.90;;;;;;5018254;28;20217;-88
2021/05/10 05:34:13;;;;;;;16.40;3.33;;;18.90;99.90;;;;;;5020776;28;20585;-88
2021/05/10 05:36:38;;;;;;;2.30;1.87;;;19.00;99.90;;;;;;5017709;28;20245;-88
2021/05/10 05:39:07;;;;;;;8.83;2.77;;;19.10;99.90;;;;;;5021231;28;20260;-89
2021/05/10 05:41:33;;;;;;;4.43;2.40;;;19.00;99.90;;;;;;5018310;28;20237;-85
2021/05/10 05:43:58;;;;;;;3.73;2.00;;;19.00;99.90;;;;;;5020896;28;20468;-86
2021/05/10 05:46:29;;;;;;;3.87;2.30;;;19.10;99.90;;;;;;5023599;28;20464;-88
2021/05/10 05:48:55;;;;;;;2.83;2.00;;;19.30;99.90;;;;;;5021334;28;20169;-88
2021/05/10 05:51:22;;;;;;;3.40;2.17;;;19.20;99.90;;;;;;5019192;28;20896;-88
2021/05/10 05:53:53;;;;;;;6.40;2.60;;;19.10;99.90;;;;;;5015920;28;20514;-90
2021/05/10 05:56:20;;;;;;;6.97;2.40;;;19.10;99.90;;;;;;5015767;28;20448;-86
2021/05/10 05:58:46;;;;;;;2.70;1.80;;;19.10;99.90;;;;;;5019364;28;20443;-87
2021/05/10 06:01:12;;;;;;;2.60;2.40;;;19.10;99.90;;;;;;5016264;28;20484;-90
2021/05/10 06:03:37;;;;;;;3.30;2.50;;;18.90;99.90;;;;;;5014611;28;20463;-87
2021/05/10 06:06:03;;;;;;;1.80;1.70;;;18.60;99.90;;;;;;5014229;28;20204;-87
2021/05/10 06:08:29;;;;;;;2.10;2.00;;;18.50;99.90;;;;;;5015199;28;20182;-89
2021/05/10 06:10:54;;;;;;;4.00;1.90;;;18.40;99.90;;;;;;5014876;28;20169;-89
2021/05/10 06:16:43;;;;;;;2.00;1.80;;;18.80;99.90;;;;;;5017505;28;20172;-86
2021/05/10 06:19:10;;;;;;;3.60;1.80;;;19.10;99.90;;;;;;5017945;28;20420;-87
2021/05/10 06:21:36;;;;;;;1.80;1.67;;;19.10;99.90;;;;;;5016079;28;20412;-90
2021/05/10 06:24:03;;;;;;;2.70;2.00;;;19.40;99.90;;;;;;5014117;28;21004;-89
2021/05/10 06:26:29;;;;;;;3.57;2.07;;;19.50;99.90;;;;;;5012928;28;20434;-87
2021/05/10 06:28:54;;;;;;;2.10;1.90;;;19.70;99.90;;;;;;5015591;28;20425;-86
2021/05/10 06:31:20;;;;;;;2.57;2.40;;;19.80;99.90;;;;;;5015987;28;20529;-87
2021/05/10 06:33:47;;;;;;;3.20;2.40;;;20.00;99.90;;;;;;5020559;28;20188;-87
2021/05/10 06:36:13;;;;;;;8.30;3.03;;;20.40;99.90;;;;;;5017052;28;20173;-87
2021/05/10 06:38:38;;;;;;;3.07;2.20;;;20.50;99.90;;;;;;5017457;28;20427;-87
2021/05/10 06:41:04;;;;;;;2.63;2.37;;;20.50;99.90;;;;;;5017219;28;20511;-86
2021/05/10 06:43:30;;;;;;;3.50;2.47;;;20.50;99.90;;;;;;5017976;28;20290;-79
2021/05/10 06:45:55;;;;;;;2.70;2.40;;;20.50;99.90;;;;;;5016258;28;20189;-84
2021/05/10 06:48:29;;;;;;;3.97;2.50;;;20.40;99.90;;;;;;5017967;28;20183;-88
2021/05/10 06:50:58;;;;;;;12.07;7.57;;;20.50;99.90;;;;;;5018790;28;20212;-87
2021/05/10 06:53:24;;;;;;;6.40;3.03;;;20.60;99.90;;;;;;5016613;28;20572;-81
2021/05/10 06:55:53;;;;;;;3.03;2.60;;;20.60;99.90;;;;;;5018223;28;20503;-86
2021/05/10 06:58:19;;;;;;;2.93;2.30;;;20.70;1.00;;;;;;5016644;28;20181;-86
2021/05/10 07:00:46;;;;;;;2.60;2.50;;;20.60;1.00;;;;;;5017310;28;20449;-86
2021/05/10 07:03:12;;;;;;;3.00;2.80;;;20.50;1.00;;;;;;5015138;28;20562;-87
2021/05/10 07:05:38;;;;;;;3.80;2.90;;;20.60;1.00;;;;;;5016947;28;20816;-88
2021/05/10 07:08:15;;;;;;;5.83;3.03;;;20.60;1.00;;;;;;5016880;28;20178;-88
2021/05/10 07:10:44;;;;;;;5.53;2.70;;;20.50;1.00;;;;;;5017474;28;20187;-90
2021/05/10 07:13:10;;;;;;;4.00;2.70;;;20.40;1.00;;;;;;5017527;28;20462;-85
2021/05/10 07:15:35;;;;;;;3.80;3.40;;;20.30;1.00;;;;;;5016450;28;20803;-86
2021/05/10 07:18:05;;;;;;;4.50;3.70;;;20.30;1.00;;;;;;5016978;28;20600;-88
2021/05/10 07:20:32;;;;;;;4.17;2.73;;;20.60;1.00;;;;;;5017476;28;20633;-86
2021/05/10 07:22:58;;;;;;;3.03;2.73;;;20.80;1.00;;;;;;5015967;28;20506;-88
2021/05/10 07:25:24;;;;;;;2.90;2.70;;;21.10;1.00;;;;;;5018523;28;20428;-89
2021/05/10 07:27:50;;;;;;;5.40;3.20;;;21.50;1.00;;;;;;5015988;28;20444;-88
2021/05/10 07:30:16;;;;;;;2.93;2.50;;;21.90;1.00;;;;;;5016254;28;20431;-88
2021/05/10 07:32:42;;;;;;;5.87;2.23;;;22.20;99.90;;;;;;5014577;28;20177;-87
2021/05/10 07:35:08;;;;;;;3.60;2.70;;;22.90;99.90;;;;;;5017769;28;20424;-86
2021/05/10 07:37:34;;;;;;;3.30;2.70;;;22.90;99.90;;;;;;5017680;28;20184;-88
2021/05/10 07:39:59;;;;;;;6.23;3.13;;;23.10;99.90;;;;;;5015551;28;20784;-88
2021/05/10 07:42:25;;;;;;;4.47;2.90;;;23.10;99.90;;;;;;5014804;28;20178;-81
2021/05/10 07:44:51;;;;;;;4.00;2.60;;;23.50;99.90;;;;;;5013058;28;20209;-88
2021/05/10 07:47:18;;;;;;;2.40;2.23;;;23.70;99.90;;;;;;5015136;28;20204;-83
2021/05/10 07:49:44;;;;;;;6.67;2.80;;;23.70;99.90;;;;;;5015213;28;20228;-90
2021/05/10 07:52:09;;;;;;;4.87;2.60;;;23.30;99.90;;;;;;5017674;28;20412;-87
2021/05/10 07:54:35;;;;;;;9.70;3.67;;;23.20;99.90;;;;;;5018528;28;20530;-88
2021/05/10 07:57:01;;;;;;;5.93;4.97;;;22.40;99.90;;;;;;5018324;28;20627;-85
